createdAt,value
2023-01-26T00:01:39.231Z,98400.41
2023-01-26T00:04:12.470Z,98399.19
2023-01-26T00:06:42.921Z,98400.31
2023-01-26T00:09:17.308Z,98392.91
2023-01-26T00:11:47.715Z,98398.38
2023-01-26T00:14:17.996Z,98395.97
2023-01-26T00:16:48.255Z,98389.31
2023-01-26T00:19:21.469Z,98377.22
2023-01-26T00:21:51.831Z,98387.72
2023-01-26T00:24:22.261Z,98383.78
2023-01-26T00:26:52.562Z,98377.13
2023-01-26T00:29:23.192Z,98379.91
2023-01-26T00:31:53.568Z,98372.44
2023-01-26T00:34:27.530Z,98373.59
2023-01-26T00:37:00.595Z,98369.31
2023-01-26T00:39:30.943Z,98370.09
2023-01-26T00:42:10.473Z,98375.16
2023-01-26T00:44:41.590Z,98373.59
2023-01-26T00:47:18.059Z,98364.28
2023-01-26T00:49:50.937Z,98367.41
2023-01-26T00:52:21.853Z,98372.88
2023-01-26T00:54:57.881Z,98371.75
2023-01-26T00:57:28.328Z,98370.19
2023-01-26T01:00:00.329Z,98366.66
2023-01-26T01:02:30.709Z,98368.22
2023-01-26T01:05:05.704Z,98370.53
2023-01-26T01:07:36.636Z,98376.44
2023-01-26T01:10:08.670Z,98379.53
2023-01-26T01:12:39.212Z,98376.38
2023-01-26T01:15:11.853Z,98377.94
2023-01-26T01:17:42.809Z,98367.34
2023-01-26T01:20:17.607Z,98365.06
2023-01-26T01:22:51.867Z,98369.34
2023-01-26T01:25:22.294Z,98368.56
2023-01-26T01:27:52.636Z,98370.09
2023-01-26T01:30:23.130Z,98364.28
2023-01-26T01:32:53.610Z,98367.41
2023-01-26T01:35:26.644Z,98363.13
2023-01-26T01:37:57.127Z,98364.66
2023-01-26T01:40:27.512Z,98365.06
2023-01-26T01:42:57.911Z,98359.59
2023-01-26T01:45:46.239Z,98357.25
2023-01-26T01:48:27.513Z,98358.03
2023-01-26T01:51:07.123Z,98355.69
2023-01-26T01:53:46.611Z,98342.78
2023-01-26T01:56:21.943Z,98345.53
2023-01-26T01:58:56.629Z,98338.09
2023-01-26T02:01:27.636Z,98338.50
2023-01-26T02:04:03.617Z,98335.47
2023-01-26T02:06:42.841Z,98330.41
2023-01-26T02:09:34.985Z,98328.50
2023-01-26T02:12:26.252Z,98322.59
2023-01-26T02:14:57.312Z,98315.94
2023-01-26T02:17:28.375Z,98310.50
2023-01-26T02:20:07.653Z,98313.28
2023-01-26T02:23:17.539Z,98312.50
2023-01-26T02:26:21.270Z,98303.06
2023-01-26T02:28:54.528Z,98298.84
2023-01-26T02:31:27.242Z,98286.81
2023-01-26T02:33:58.825Z,98287.28
2023-01-26T02:36:34.736Z,98272.91
2023-01-26T02:39:27.742Z,98270.22
2023-01-26T02:42:13.399Z,98263.25
2023-01-26T02:44:46.577Z,98260.88
2023-01-26T02:47:19.545Z,98253.94
2023-01-26T02:49:50.606Z,98261.78
2023-01-26T02:52:25.860Z,98247.38
2023-01-26T02:55:13.798Z,98254.00
2023-01-26T02:57:47.329Z,98250.88
2023-01-26T03:00:22.544Z,98248.53
2023-01-26T03:02:56.947Z,98246.19
2023-01-26T03:05:29.245Z,98243.84
2023-01-26T03:07:59.660Z,98248.94
2023-01-26T03:10:36.553Z,98241.13
2023-01-26T03:13:09.759Z,98245.47
2023-01-26T03:15:52.886Z,98250.16
2023-01-26T03:18:39.073Z,98247.75
2023-01-26T03:21:28.641Z,98246.16
2023-01-26T03:24:11.474Z,98250.88
2023-01-26T03:26:55.543Z,98238.34
2023-01-26T03:29:30.535Z,98239.91
2023-01-26T03:32:03.729Z,98246.13
2023-01-26T03:34:34.926Z,98239.06
2023-01-26T03:37:07.349Z,98239.06
2023-01-26T03:39:58.071Z,98238.31
2023-01-26T03:42:40.919Z,98231.69
2023-01-26T03:45:26.899Z,98234.47
2023-01-26T03:48:18.709Z,98229.00
2023-01-26T03:51:01.484Z,98226.69
2023-01-26T03:53:44.195Z,98228.28
2023-01-26T03:56:22.344Z,98232.16
2023-01-26T03:58:58.276Z,98239.19
2023-01-26T04:01:34.724Z,98231.41
2023-01-26T04:04:17.687Z,98239.94
2023-01-26T04:07:05.252Z,98229.81
2023-01-26T04:09:37.150Z,98222.78
2023-01-26T04:12:10.805Z,98223.56
2023-01-26T04:15:03.037Z,98218.91
2023-01-26T04:17:48.374Z,98222.00
2023-01-26T04:20:31.655Z,98225.50
2023-01-26T04:23:01.992Z,98222.84
2023-01-26T04:25:32.409Z,98218.59
2023-01-26T04:28:02.744Z,98216.72
2023-01-26T04:30:33.473Z,98212.84
2023-01-26T04:33:06.644Z,98215.19
2023-01-26T04:35:37.237Z,98211.66
2023-01-26T04:38:08.234Z,98216.31
2023-01-26T04:40:38.590Z,98212.44
2023-01-26T04:43:08.907Z,98210.50
2023-01-26T04:45:40.029Z,98208.19
2023-01-26T04:48:13.608Z,98207.41
2023-01-26T04:50:44.784Z,98210.13
2023-01-26T04:53:15.088Z,98213.97
2023-01-26T04:55:45.318Z,98202.66
2023-01-26T04:58:15.772Z,98206.53
2023-01-26T05:00:47.577Z,98201.47
2023-01-26T05:03:20.585Z,98212.03
2023-01-26T05:05:53.243Z,98204.59
2023-01-26T05:08:26.085Z,98206.22
2023-01-26T05:10:57.260Z,98202.72
2023-01-26T05:13:37.541Z,98201.09
2023-01-26T05:16:28.114Z,98201.91
2023-01-26T05:19:14.131Z,98205.91
2023-01-26T05:21:52.308Z,98216.91
2023-01-26T05:24:22.778Z,98214.59
2023-01-26T05:27:25.932Z,98216.56
2023-01-26T05:30:01.849Z,98220.41
2023-01-26T05:32:35.002Z,98214.94
2023-01-26T05:35:09.278Z,98221.63
2023-01-26T05:37:42.116Z,98218.84
2023-01-26T05:40:15.364Z,98222.34
2023-01-26T05:42:50.440Z,98216.19
2023-01-26T05:45:27.691Z,98217.34
2023-01-26T05:48:00.597Z,98215.38
2023-01-26T05:50:33.846Z,98210.72
2023-01-26T05:53:24.414Z,98215.03
2023-01-26T05:55:55.192Z,98218.53
2023-01-26T05:58:27.799Z,98219.38
2023-01-26T06:00:58.092Z,98224.81
2023-01-26T06:03:33.348Z,98221.72
2023-01-26T06:06:06.422Z,98230.66
2023-01-26T06:08:44.778Z,98227.16
2023-01-26T06:11:35.339Z,98234.19
2023-01-26T06:14:11.404Z,98233.03
2023-01-26T06:16:41.877Z,98221.72
2023-01-26T06:19:14.194Z,98227.59
2023-01-26T06:21:50.029Z,98219.44
2023-01-26T06:24:20.480Z,98224.91
2023-01-26T06:26:51.505Z,98221.75
2023-01-26T06:29:22.530Z,98223.25
2023-01-26T06:31:53.273Z,98234.19
2023-01-26T06:34:24.744Z,98226.41
2023-01-26T06:36:58.008Z,98230.31
2023-01-26T06:39:32.856Z,98230.31
2023-01-26T06:42:04.209Z,98228.38
2023-01-26T06:44:34.588Z,98228.81
2023-01-26T06:47:05.016Z,98231.53
2023-01-26T06:49:35.606Z,98224.91
2023-01-26T06:52:26.041Z,98228.81
2023-01-26T06:55:01.911Z,98224.50
2023-01-26T06:57:47.986Z,98224.16
2023-01-26T07:00:39.792Z,98224.94
2023-01-26T07:03:26.386Z,98227.63
2023-01-26T07:05:56.686Z,98240.41
2023-01-26T07:08:29.552Z,98232.53
2023-01-26T07:10:59.852Z,98232.50
2023-01-26T07:13:30.128Z,98231.34
2023-01-26T07:16:04.559Z,98234.06
2023-01-26T07:18:35.520Z,98232.50
2023-01-26T07:21:06.078Z,98223.13
2023-01-26T07:23:40.915Z,98231.72
2023-01-26T07:26:11.259Z,98227.84
2023-01-26T07:28:41.829Z,98225.47
2023-01-26T07:31:14.716Z,98227.78
2023-01-26T07:33:45.154Z,98215.72
2023-01-26T07:36:15.753Z,98217.69
2023-01-26T07:38:48.748Z,98215.31
2023-01-26T07:41:19.109Z,98214.94
2023-01-26T07:43:50.268Z,98222.00
2023-01-26T07:46:22.257Z,98220.03
2023-01-26T07:48:52.763Z,98220.50
2023-01-26T07:51:23.685Z,98224.00
2023-01-26T07:53:56.678Z,98221.66
2023-01-26T07:56:26.942Z,98225.59
2023-01-26T07:58:58.128Z,98228.38
2023-01-26T08:01:28.499Z,98227.56
2023-01-26T08:03:59.137Z,98224.41
2023-01-26T08:06:29.446Z,98224.78
2023-01-26T08:09:02.697Z,98224.00
2023-01-26T08:11:33.023Z,98225.19
2023-01-26T08:14:03.325Z,98231.84
2023-01-26T08:16:33.626Z,98231.41
2023-01-26T08:19:04.089Z,98226.75
2023-01-26T08:21:34.414Z,98224.00
2023-01-26T08:24:08.099Z,98224.81
2023-01-26T08:26:38.389Z,98215.09
2023-01-26T08:29:10.925Z,98218.97
2023-01-26T08:31:41.569Z,98218.94
2023-01-26T08:34:11.996Z,98219.31
2023-01-26T08:36:42.360Z,98221.66
2023-01-26T08:39:15.220Z,98224.00
2023-01-26T08:41:45.490Z,98225.94
2023-01-26T08:44:16.810Z,98215.34
2023-01-26T08:46:47.245Z,98214.56
2023-01-26T08:49:17.585Z,98211.41
2023-01-26T08:51:47.884Z,98199.31
2023-01-26T08:54:21.051Z,98205.53
2023-01-26T08:56:51.380Z,98199.69
2023-01-26T08:59:21.765Z,98196.97
2023-01-26T09:01:52.234Z,98207.94
2023-01-26T09:04:22.658Z,98212.22
2023-01-26T09:06:53.002Z,98211.44
2023-01-26T09:09:26.181Z,98215.72
2023-01-26T09:12:01.606Z,98214.47
2023-01-26T09:14:32.113Z,98216.00
2023-01-26T09:17:02.397Z,98217.63
2023-01-26T09:19:32.748Z,98223.13
2023-01-26T09:22:03.066Z,98219.59
2023-01-26T09:24:35.931Z,98224.66
2023-01-26T09:27:06.334Z,98224.25
2023-01-26T09:29:36.651Z,98226.84
2023-01-26T09:32:07.575Z,98229.63
2023-01-26T09:34:38.006Z,98222.25
2023-01-26T09:37:10.232Z,98216.47
2023-01-26T09:39:43.566Z,98226.25
2023-01-26T09:42:44.550Z,98224.25
2023-01-26T09:45:31.180Z,98231.28
2023-01-26T09:48:28.194Z,98235.19
2023-01-26T09:51:08.180Z,98229.34
2023-01-26T09:53:49.513Z,98231.63
2023-01-26T09:56:24.778Z,98227.75
2023-01-26T09:58:59.369Z,98228.50
2023-01-26T10:01:39.223Z,98231.66
2023-01-26T10:04:21.496Z,98230.06
2023-01-26T10:06:52.709Z,98230.50
2023-01-26T10:09:51.888Z,98223.88
2023-01-26T10:12:28.665Z,98232.44
2023-01-26T10:15:07.880Z,98230.09
2023-01-26T10:17:42.596Z,98232.16
2023-01-26T10:20:34.300Z,98220.41
2023-01-26T10:23:08.822Z,98221.91
2023-01-26T10:25:41.856Z,98219.16
2023-01-26T10:28:21.368Z,98218.34
2023-01-26T10:30:52.508Z,98215.59
2023-01-26T10:33:29.837Z,98209.34
2023-01-26T10:36:00.350Z,98205.88
2023-01-26T10:38:43.262Z,98209.78
2023-01-26T10:41:29.765Z,98212.50
2023-01-26T10:44:06.618Z,98206.63
2023-01-26T10:46:39.776Z,98201.25
2023-01-26T10:49:19.407Z,98202.03
2023-01-26T10:52:11.313Z,98203.88
2023-01-26T10:54:44.006Z,98207.38
2023-01-26T10:57:28.048Z,98207.78
2023-01-26T11:00:08.401Z,98197.63
2023-01-26T11:02:40.225Z,98208.50
2023-01-26T11:05:23.117Z,98201.09
2023-01-26T11:08:00.233Z,98202.25
2023-01-26T11:10:34.771Z,98203.38
2023-01-26T11:13:26.306Z,98204.59
2023-01-26T11:16:17.441Z,98204.16
2023-01-26T11:19:01.025Z,98202.16
2023-01-26T11:21:39.247Z,98199.75
2023-01-26T11:24:21.389Z,98197.81
2023-01-26T11:27:17.047Z,98208.00
2023-01-26T11:30:26.569Z,98187.28
2023-01-26T11:33:05.012Z,98188.16
2023-01-26T11:35:52.069Z,98188.53
2023-01-26T11:38:35.717Z,98187.78
2023-01-26T11:41:31.040Z,98188.94
2023-01-26T11:44:39.377Z,98187.00
2023-01-26T11:47:26.263Z,98182.81
2023-01-26T11:50:33.710Z,98173.00
2023-01-26T11:53:31.233Z,98165.25
2023-01-26T11:56:35.898Z,98169.88
2023-01-26T11:59:14.081Z,98158.97
2023-01-26T12:01:52.916Z,98152.72
2023-01-26T12:04:25.371Z,98152.28
2023-01-26T12:07:06.701Z,98155.78
2023-01-26T12:09:42.371Z,98151.94
2023-01-26T12:12:18.112Z,98158.16
2023-01-26T12:14:55.407Z,98149.59
2023-01-26T12:17:42.583Z,98129.31
2023-01-26T12:20:31.751Z,98125.75
2023-01-26T12:23:09.421Z,98116.38
2023-01-26T12:25:43.582Z,98113.56
2023-01-26T12:28:22.625Z,98110.44
2023-01-26T12:31:04.299Z,98111.97
2023-01-26T12:33:35.768Z,98111.97
2023-01-26T12:36:25.823Z,98104.66
2023-01-26T12:39:14.497Z,98109.00
2023-01-26T12:42:15.075Z,98100.50
2023-01-26T12:44:47.786Z,98102.78
2023-01-26T12:47:24.435Z,98096.28
2023-01-26T12:50:03.997Z,98093.53
2023-01-26T12:52:41.570Z,98086.94
2023-01-26T12:55:23.411Z,98092.06
2023-01-26T12:57:59.151Z,98088.09
2023-01-26T13:00:34.371Z,98084.97
2023-01-26T13:03:09.497Z,98086.13
2023-01-26T13:05:58.033Z,98091.22
2023-01-26T13:08:53.996Z,98098.22
2023-01-26T13:11:55.929Z,98093.50
2023-01-26T13:14:41.712Z,98093.88
2023-01-26T13:17:49.719Z,98091.16
2023-01-26T13:20:48.516Z,98102.13
2023-01-26T13:23:52.673Z,98095.13
2023-01-26T13:26:48.375Z,98095.22
2023-01-26T13:29:37.144Z,98091.41
2023-01-26T13:32:59.719Z,98098.03
2023-01-26T13:35:30.994Z,98096.13
2023-01-26T13:38:05.946Z,98095.75
2023-01-26T13:40:39.467Z,98103.53
2023-01-26T13:43:26.346Z,98100.41
2023-01-26T13:46:14.186Z,98100.84
2023-01-26T13:48:51.308Z,98101.69
2023-01-26T13:51:24.190Z,98100.13
2023-01-26T13:54:01.992Z,98097.06
2023-01-26T13:56:35.445Z,98095.09
2023-01-26T13:59:14.477Z,98093.13
2023-01-26T14:01:51.448Z,98086.09
2023-01-26T14:04:24.371Z,98093.84
2023-01-26T14:06:59.464Z,98092.38
2023-01-26T14:09:33.353Z,98097.06
2023-01-26T14:12:06.964Z,98081.13
2023-01-26T14:14:40.922Z,98092.88
2023-01-26T14:17:29.389Z,98101.78
2023-01-26T14:20:03.694Z,98098.66
2023-01-26T14:22:34.139Z,98100.19
2023-01-26T14:25:04.446Z,98096.28
2023-01-26T14:27:41.143Z,98089.28
2023-01-26T14:30:29.204Z,98090.00
2023-01-26T14:33:08.472Z,98084.63
2023-01-26T14:35:38.857Z,98088.88
2023-01-26T14:38:18.072Z,98089.31
2023-01-26T14:40:49.709Z,98092.81
2023-01-26T14:43:20.865Z,98090.88
2023-01-26T14:45:55.186Z,98092.44
2023-01-26T14:48:32.733Z,98100.63
2023-01-26T14:51:08.247Z,98104.97
2023-01-26T14:53:38.659Z,98105.34
2023-01-26T14:56:16.833Z,98108.06
2023-01-26T14:58:47.131Z,98104.97
2023-01-26T15:01:25.331Z,98115.53
2023-01-26T15:04:05.331Z,98103.59
2023-01-26T15:06:36.954Z,98100.50
2023-01-26T15:09:21.429Z,98095.06
2023-01-26T15:12:10.717Z,98103.22
2023-01-26T15:14:51.808Z,98106.75
2023-01-26T15:17:40.180Z,98111.03
2023-01-26T15:20:46.838Z,98111.81
2023-01-26T15:23:30.875Z,98113.44
2023-01-26T15:26:10.092Z,98119.63
2023-01-26T15:28:41.523Z,98118.50
2023-01-26T15:31:32.454Z,98124.75
2023-01-26T15:34:04.320Z,98117.38
2023-01-26T15:36:50.390Z,98122.44
2023-01-26T15:39:22.969Z,98122.47
2023-01-26T15:42:14.479Z,98118.59
2023-01-26T15:44:45.099Z,98119.81
2023-01-26T15:47:16.297Z,98115.94
2023-01-26T15:49:46.654Z,98111.66
2023-01-26T15:52:23.441Z,98114.03
2023-01-26T15:54:54.288Z,98115.97
2023-01-26T15:57:24.758Z,98119.88
2023-01-26T15:59:55.080Z,98124.16
2023-01-26T16:02:25.752Z,98122.63
2023-01-26T16:04:56.147Z,98127.25
2023-01-26T16:07:29.477Z,98124.53
2023-01-26T16:10:01.267Z,98121.88
2023-01-26T16:12:32.505Z,98121.09
2023-01-26T16:15:03.072Z,98118.38
2023-01-26T16:17:33.652Z,98117.59
2023-01-26T16:20:04.366Z,98121.91
2023-01-26T16:22:37.465Z,98127.69
2023-01-26T16:25:22.282Z,98124.19
2023-01-26T16:27:52.807Z,98126.50
2023-01-26T16:30:23.486Z,98132.41
2023-01-26T16:32:54.932Z,98132.41
2023-01-26T16:35:26.932Z,98140.16
2023-01-26T16:38:00.692Z,98141.31
2023-01-26T16:40:31.122Z,98151.44
2023-01-26T16:43:01.399Z,98144.41
2023-01-26T16:45:31.692Z,98149.06
2023-01-26T16:48:03.184Z,98142.84
2023-01-26T16:50:33.439Z,98142.84
2023-01-26T16:53:30.322Z,98131.97
2023-01-26T16:56:00.652Z,98138.59
2023-01-26T16:58:33.311Z,98134.31
2023-01-26T17:01:04.009Z,98129.22
2023-01-26T17:03:34.462Z,98139.75
2023-01-26T17:06:04.801Z,98140.50
2023-01-26T17:08:37.697Z,98136.59
2023-01-26T17:11:08.426Z,98138.97
2023-01-26T17:13:38.785Z,98143.22
2023-01-26T17:16:16.643Z,98135.06
2023-01-26T17:18:47.915Z,98133.50
2023-01-26T17:21:20.032Z,98139.75
2023-01-26T17:23:56.456Z,98142.06
2023-01-26T17:26:26.975Z,98139.75
2023-01-26T17:28:58.911Z,98142.03
2023-01-26T17:31:30.467Z,98138.91
2023-01-26T17:34:00.748Z,98132.75
2023-01-26T17:36:31.102Z,98144.44
2023-01-26T17:39:04.052Z,98144.44
2023-01-26T17:41:34.363Z,98144.47
2023-01-26T17:44:04.984Z,98158.47
2023-01-26T17:46:35.377Z,98144.47
2023-01-26T17:49:06.284Z,98150.72
2023-01-26T17:51:36.756Z,98147.97
2023-01-26T17:54:09.764Z,98153.81
2023-01-26T17:56:40.132Z,98149.16
2023-01-26T17:59:10.546Z,98148.38
2023-01-26T18:01:40.906Z,98155.00
2023-01-26T18:04:11.540Z,98153.06
2023-01-26T18:06:42.006Z,98156.16
2023-01-26T18:09:15.150Z,98159.66
2023-01-26T18:11:45.509Z,98154.59
2023-01-26T18:14:15.933Z,98164.69
2023-01-26T18:16:46.411Z,98166.28
2023-01-26T18:19:16.835Z,98164.34
2023-01-26T18:21:49.030Z,98167.84
2023-01-26T18:24:23.093Z,98165.53
2023-01-26T18:26:53.556Z,98161.63
2023-01-26T18:29:23.843Z,98166.28
2023-01-26T18:31:54.208Z,98172.91
2023-01-26T18:34:24.572Z,98172.50
2023-01-26T18:36:54.905Z,98171.34
2023-01-26T18:39:28.977Z,98162.00
2023-01-26T18:41:59.317Z,98170.94
2023-01-26T18:44:29.839Z,98174.84
2023-01-26T18:47:00.270Z,98180.31
2023-01-26T18:49:30.699Z,98180.66
2023-01-26T18:52:01.020Z,98184.19
2023-01-26T18:54:34.265Z,98183.41
2023-01-26T18:57:05.000Z,98176.78
2023-01-26T18:59:35.378Z,98179.88
2023-01-26T19:02:05.773Z,98181.81
2023-01-26T19:04:36.529Z,98180.25
2023-01-26T19:07:06.896Z,98184.50
2023-01-26T19:09:40.257Z,98181.41
2023-01-26T19:12:12.009Z,98181.00
2023-01-26T19:14:42.281Z,98175.19
2023-01-26T19:17:12.691Z,98172.88
2023-01-26T19:19:43.137Z,98170.91
2023-01-26T19:22:13.428Z,98171.72
2023-01-26T19:24:46.373Z,98167.06
2023-01-26T19:27:16.602Z,98162.38
2023-01-26T19:29:46.906Z,98164.75
2023-01-26T19:32:17.202Z,98161.63
2023-01-26T19:34:47.590Z,98163.97
2023-01-26T19:37:17.956Z,98163.94
2023-01-26T19:39:50.907Z,98165.13
2023-01-26T19:42:21.230Z,98162.38
2023-01-26T19:44:51.550Z,98166.28
2023-01-26T19:47:21.756Z,98165.50
2023-01-26T19:49:52.072Z,98166.66
2023-01-26T19:52:22.309Z,98163.56
2023-01-26T19:54:55.304Z,98158.50
2023-01-26T19:57:26.079Z,98167.81
2023-01-26T19:59:56.507Z,98167.81
2023-01-26T20:02:26.843Z,98170.50
2023-01-26T20:04:57.230Z,98170.13
2023-01-26T20:07:27.711Z,98167.78
2023-01-26T20:10:00.652Z,98167.78
2023-01-26T20:12:30.939Z,98171.69
2023-01-26T20:15:01.258Z,98173.59
2023-01-26T20:17:32.128Z,98170.88
2023-01-26T20:20:02.489Z,98173.19
2023-01-26T20:22:34.187Z,98181.78
2023-01-26T20:25:11.351Z,98177.09
2023-01-26T20:27:42.252Z,98164.66
2023-01-26T20:30:14.874Z,98170.09
2023-01-26T20:32:45.251Z,98174.00
2023-01-26T20:35:16.926Z,98169.72
2023-01-26T20:37:47.209Z,98170.88
2023-01-26T20:40:22.680Z,98168.94
2023-01-26T20:42:53.209Z,98165.03
2023-01-26T20:45:25.005Z,98158.81
2023-01-26T20:47:55.608Z,98151.44
2023-01-26T20:50:26.230Z,98155.31
2023-01-26T20:52:58.777Z,98157.31
2023-01-26T20:55:31.785Z,98160.78
2023-01-26T20:58:02.108Z,98150.28
2023-01-26T21:00:33.139Z,98153.75
2023-01-26T21:03:03.524Z,98156.09
2023-01-26T21:05:33.991Z,98160.38
2023-01-26T21:08:04.370Z,98161.56
2023-01-26T21:10:37.770Z,98168.56
2023-01-26T21:13:08.073Z,98159.25
2023-01-26T21:15:38.420Z,98154.22
2023-01-26T21:18:08.782Z,98155.75
2023-01-26T21:20:39.056Z,98156.94
2023-01-26T21:23:09.376Z,98148.38
2023-01-26T21:25:42.327Z,98150.72
2023-01-26T21:28:12.577Z,98150.75
2023-01-26T21:30:42.904Z,98151.91
2023-01-26T21:33:14.933Z,98158.09
2023-01-26T21:35:45.245Z,98156.97
2023-01-26T21:38:15.602Z,98150.38
2023-01-26T21:40:48.455Z,98147.66
2023-01-26T21:43:18.771Z,98148.44
2023-01-26T21:45:58.183Z,98146.47
2023-01-26T21:48:35.953Z,98148.84
2023-01-26T21:51:18.821Z,98140.69
2023-01-26T21:53:49.286Z,98141.44
2023-01-26T21:56:24.795Z,98151.19
2023-01-26T21:58:56.761Z,98146.53
2023-01-26T22:01:28.170Z,98146.88
2023-01-26T22:03:58.963Z,98149.25
2023-01-26T22:06:29.779Z,98150.81
2023-01-26T22:09:01.110Z,98158.97
2023-01-26T22:11:34.123Z,98147.31
2023-01-26T22:14:04.818Z,98149.63
2023-01-26T22:16:35.725Z,98158.94
2023-01-26T22:19:06.456Z,98158.56
2023-01-26T22:21:37.246Z,98149.97
2023-01-26T22:24:11.797Z,98153.47
2023-01-26T22:26:45.481Z,98157.75
2023-01-26T22:29:16.010Z,98146.09
2023-01-26T22:31:46.502Z,98149.19
2023-01-26T22:34:16.877Z,98153.13
2023-01-26T22:36:47.260Z,98145.38
2023-01-26T22:39:17.626Z,98147.69
2023-01-26T22:41:50.503Z,98145.72
2023-01-26T22:44:21.071Z,98152.34
2023-01-26T22:46:52.647Z,98145.34
2023-01-26T22:49:22.953Z,98144.56
2023-01-26T22:51:53.405Z,98146.91
2023-01-26T22:54:24.320Z,98146.88
2023-01-26T22:56:57.306Z,98136.78
2023-01-26T22:59:27.989Z,98144.53
2023-01-26T23:01:58.338Z,98140.69
2023-01-26T23:04:29.031Z,98150.03
2023-01-26T23:06:59.462Z,98143.03
2023-01-26T23:09:29.779Z,98140.69
2023-01-26T23:12:05.810Z,98143.81
2023-01-26T23:14:37.040Z,98148.03
2023-01-26T23:17:08.252Z,98144.56
2023-01-26T23:19:38.956Z,98146.91
2023-01-26T23:22:09.311Z,98150.00
2023-01-26T23:24:39.633Z,98148.44
2023-01-26T23:27:12.503Z,98148.44
2023-01-26T23:29:42.837Z,98151.53
2023-01-26T23:32:13.188Z,98144.88
2023-01-26T23:34:43.487Z,98146.06
2023-01-26T23:37:13.754Z,98146.41
2023-01-26T23:39:44.032Z,98149.56
2023-01-26T23:42:16.979Z,98144.88
2023-01-26T23:44:47.209Z,98139.84
2023-01-26T23:47:17.585Z,98145.31
2023-01-26T23:49:47.934Z,98148.44
2023-01-26T23:52:18.252Z,98149.19
2023-01-26T23:54:48.541Z,98144.97
2023-01-26T23:57:21.498Z,98142.25
2023-01-26T23:59:51.772Z,98144.19
